CheckWX is a tool to help pilots better visualize weather data.  It is not intended as a substitute for an official pre-flight weather briefing.

14:49:08 UTC

VTCN METAR
Nan Airport
Thailand
Current

4 hours ago

VTCN 151100Z 00000KT 9999 FEW025 33/24 Q1005 NOSIG
Observed
Sep-15 @ 11:00 UTC
Visibility
10,000+ meters
Flight Rules
VFR
Cloud Levels
  • Few at 2,500' AGL
Temperature
33°C / 91°F
Dewpoint
24°C / 75°F
Heat Index
39°C / 102°F
Humidity
59%
Altimeter
29.68" Hg
Pressure
1004.92 hPa
Previous

5 hours ago

VTCN 151000Z 34003KT 290V010 9999 FEW025 34/22 Q1004 NOSIG
Observed
Sep-15 @ 10:00 UTC
Wind
  • 340° at 3 KTS
Visibility
10,000+ meters
Flight Rules
VFR
Cloud Levels
  • Few at 2,500' AGL
Temperature
34°C / 93°F
Dewpoint
22°C / 72°F
Heat Index
38°C / 100°F
Humidity
49%
Altimeter
29.65" Hg
Pressure
1003.92 hPa
Previous

6 hours ago

VTCN 150900Z 27005KT 200V010 9999 SCT025 35/23 Q1004 NOSIG
Observed
Sep-15 @ 09:00 UTC
Wind
  • 270° at 5 KTS
Visibility
10,000+ meters
Flight Rules
VFR
Cloud Levels
  • Scattered at 2,500' AGL
Temperature
35°C / 95°F
Dewpoint
23°C / 73°F
Heat Index
41°C / 105°F
Humidity
50%
Altimeter
29.65" Hg
Pressure
1003.92 hPa